EZY8545 EGKK-LSGG
Flight info
| Callsign | EZY8545 |
|---|---|
| Flight time | 1h 15m |
| Altitude | 31000 |
| Route | BOGNA L612 XAMAB UL612 VEULE DCT PEKIM DCT PILUL DCT PIMUP DCT PIXIS DCT PIBAT DCT LUSAR |
| Aircraft | A319/M-SDE3FGHIRWY/LB1 |
Departure
| Time | 2026-04-15 14:49 |
|---|---|
| Airport | London Gatwick Airport (EGKK) |
Arrival
| Time | 2026-04-15 16:04 |
|---|---|
| Airport | Geneva International Airport (LSGG) |
| Time | Latitude | Longitude | Altitude | Speed | Heading |
|---|---|---|---|---|---|
| 2026-04-15 14:08 | 51.15591 | -0.17621 | 204 ft | 0 kts | 347° |
| 2026-04-15 14:38 | 51.15574 | -0.17615 | 206 ft | 4 kts | 347° |
| 2026-04-15 14:38 | 51.15555 | -0.17608 | 212 ft | 0 kts | 347° |
| 2026-04-15 14:39 | 51.15540 | -0.17606 | 214 ft | 3 kts | 8° |
| 2026-04-15 14:39 | 51.15524 | -0.17616 | 216 ft | 3 kts | 72° |
| 2026-04-15 14:39 | 51.15522 | -0.17627 | 204 ft | 0 kts | 75° |
| 2026-04-15 14:42 | 51.15523 | -0.17618 | 204 ft | 2 kts | 75° |
| 2026-04-15 14:42 | 51.15529 | -0.17585 | 212 ft | 4 kts | 75° |
| 2026-04-15 14:43 | 51.15539 | -0.17517 | 204 ft | 8 kts | 77° |
| 2026-04-15 14:43 | 51.15529 | -0.17439 | 211 ft | 8 kts | 136° |
| 2026-04-15 14:43 | 51.15477 | -0.17415 | 204 ft | 8 kts | 168° |
| 2026-04-15 14:43 | 51.15420 | -0.17397 | 208 ft | 9 kts | 168° |
| 2026-04-15 14:44 | 51.15357 | -0.17375 | 209 ft | 10 kts | 167° |
| 2026-04-15 14:44 | 51.15289 | -0.17350 | 207 ft | 10 kts | 166° |
| 2026-04-15 14:44 | 51.15224 | -0.17293 | 211 ft | 11 kts | 144° |
| 2026-04-15 14:44 | 51.15175 | -0.17209 | 206 ft | 8 kts | 83° |
| 2026-04-15 14:45 | 51.15186 | -0.17159 | 209 ft | 5 kts | 80° |
| 2026-04-15 14:45 | 51.15194 | -0.17089 | 204 ft | 8 kts | 79° |
| 2026-04-15 14:45 | 51.15208 | -0.16990 | 204 ft | 10 kts | 76° |
| 2026-04-15 14:45 | 51.15222 | -0.16901 | 207 ft | 7 kts | 78° |
| 2026-04-15 14:46 | 51.15223 | -0.16882 | 206 ft | 2 kts | 87° |
| 2026-04-15 14:46 | 51.15223 | -0.16880 | 204 ft | 0 kts | 87° |
| 2026-04-15 14:46 | 51.15223 | -0.16858 | 208 ft | 4 kts | 89° |
| 2026-04-15 14:46 | 51.15205 | -0.16798 | 206 ft | 8 kts | 140° |
| 2026-04-15 14:47 | 51.15138 | -0.16795 | 209 ft | 12 kts | 208° |
| 2026-04-15 14:47 | 51.15109 | -0.16893 | 205 ft | 2 kts | 257° |
| 2026-04-15 14:48 | 51.15105 | -0.16921 | 206 ft | 12 kts | 257° |
| 2026-04-15 14:48 | 51.15027 | -0.17482 | 213 ft | 89 kts | 257° |
| 2026-04-15 14:48 | 51.14849 | -0.18785 | 207 ft | 149 kts | 258° |
| 2026-04-15 14:49 | 51.14631 | -0.20517 | 682 ft | 160 kts | 252° |
| 2026-04-15 14:49 | 51.14413 | -0.22245 | 1481 ft | 158 kts | 251° |
| 2026-04-15 14:49 | 51.14176 | -0.23937 | 2268 ft | 155 kts | 251° |
| 2026-04-15 14:49 | 51.13938 | -0.25591 | 3045 ft | 152 kts | 251° |
| 2026-04-15 14:50 | 51.13701 | -0.27243 | 3679 ft | 159 kts | 251° |
| 2026-04-15 14:50 | 51.13431 | -0.29083 | 4008 ft | 183 kts | 251° |
| 2026-04-15 14:50 | 51.13128 | -0.31167 | 4610 ft | 200 kts | 252° |
| 2026-04-15 14:50 | 51.12816 | -0.33374 | 4944 ft | 205 kts | 252° |
| 2026-04-15 14:51 | 51.12508 | -0.35587 | 4998 ft | 205 kts | 253° |
| 2026-04-15 14:51 | 51.12202 | -0.37803 | 5005 ft | 205 kts | 253° |
| 2026-04-15 14:51 | 51.11879 | -0.40012 | 5009 ft | 203 kts | 248° |
| 2026-04-15 14:51 | 51.11062 | -0.41733 | 5009 ft | 199 kts | 211° |
| 2026-04-15 14:52 | 51.09684 | -0.42068 | 5014 ft | 210 kts | 179° |
| 2026-04-15 14:52 | 51.08228 | -0.41776 | 5008 ft | 210 kts | 181° |
| 2026-04-15 14:52 | 51.06727 | -0.41588 | 5014 ft | 230 kts | 182° |
| 2026-04-15 14:52 | 51.05082 | -0.41417 | 5001 ft | 241 kts | 182° |
| 2026-04-15 14:53 | 51.03405 | -0.41233 | 5009 ft | 242 kts | 181° |
| 2026-04-15 14:53 | 51.01721 | -0.41038 | 5009 ft | 243 kts | 181° |
| 2026-04-15 14:53 | 51.00036 | -0.40833 | 5041 ft | 245 kts | 181° |
| 2026-04-15 14:53 | 50.98297 | -0.40623 | 5717 ft | 252 kts | 181° |
| 2026-04-15 14:54 | 50.97835 | -0.40567 | 5857 ft | 252 kts | 181° |
| 2026-04-15 14:54 | 50.96352 | -0.40380 | 6045 ft | 249 kts | 181° |
| 2026-04-15 14:54 | 50.94632 | -0.40163 | 6076 ft | 247 kts | 181° |
| 2026-04-15 14:54 | 50.92921 | -0.39944 | 6081 ft | 247 kts | 181° |
| 2026-04-15 14:55 | 50.91210 | -0.39727 | 6083 ft | 247 kts | 181° |
| 2026-04-15 14:55 | 50.89495 | -0.39509 | 6083 ft | 247 kts | 181° |
| 2026-04-15 14:55 | 50.87777 | -0.39288 | 6085 ft | 248 kts | 181° |
| 2026-04-15 14:55 | 50.86061 | -0.39069 | 6078 ft | 248 kts | 181° |
| 2026-04-15 14:56 | 50.84338 | -0.38821 | 6077 ft | 250 kts | 177° |
| 2026-04-15 14:56 | 50.82670 | -0.37998 | 6083 ft | 261 kts | 161° |
| 2026-04-15 14:56 | 50.81109 | -0.36466 | 6080 ft | 265 kts | 154° |
| 2026-04-15 14:56 | 50.79570 | -0.34858 | 6086 ft | 265 kts | 154° |
| 2026-04-15 14:57 | 50.78030 | -0.33252 | 6087 ft | 265 kts | 154° |
| 2026-04-15 14:57 | 50.76491 | -0.31656 | 6087 ft | 265 kts | 154° |
| 2026-04-15 14:57 | 50.74949 | -0.30066 | 6084 ft | 265 kts | 154° |
| 2026-04-15 14:57 | 50.73404 | -0.28476 | 6082 ft | 265 kts | 154° |
| 2026-04-15 14:58 | 50.71859 | -0.26883 | 6086 ft | 265 kts | 154° |
| 2026-04-15 14:58 | 50.70316 | -0.25288 | 6080 ft | 265 kts | 154° |
| 2026-04-15 14:58 | 50.68755 | -0.23669 | 6398 ft | 274 kts | 154° |
| 2026-04-15 14:58 | 50.67174 | -0.22016 | 7475 ft | 271 kts | 154° |
| 2026-04-15 14:59 | 50.65603 | -0.20365 | 8506 ft | 273 kts | 154° |
| 2026-04-15 14:59 | 50.64016 | -0.18696 | 9452 ft | 276 kts | 154° |
| 2026-04-15 14:59 | 50.62402 | -0.17003 | 10330 ft | 283 kts | 154° |
| 2026-04-15 14:59 | 50.60692 | -0.15229 | 10696 ft | 306 kts | 154° |
| 2026-04-15 15:00 | 50.58840 | -0.13320 | 10994 ft | 331 kts | 154° |
| 2026-04-15 15:00 | 50.56846 | -0.11256 | 11214 ft | 355 kts | 153° |
| 2026-04-15 15:00 | 50.54726 | -0.09049 | 11443 ft | 375 kts | 153° |
| 2026-04-15 15:00 | 50.52527 | -0.06744 | 12042 ft | 383 kts | 153° |
| 2026-04-15 15:01 | 50.50301 | -0.04403 | 12764 ft | 387 kts | 153° |
| 2026-04-15 15:01 | 50.48083 | -0.02076 | 13495 ft | 391 kts | 153° |
| 2026-04-15 15:01 | 50.45808 | 0.00301 | 14157 ft | 395 kts | 152° |
| 2026-04-15 15:01 | 50.43506 | 0.02696 | 14800 ft | 399 kts | 152° |
| 2026-04-15 15:02 | 50.41183 | 0.05102 | 15434 ft | 402 kts | 152° |
| 2026-04-15 15:02 | 50.38842 | 0.07520 | 16057 ft | 404 kts | 152° |
| 2026-04-15 15:02 | 50.36486 | 0.09951 | 16695 ft | 406 kts | 152° |
| 2026-04-15 15:02 | 50.34121 | 0.12394 | 17326 ft | 408 kts | 152° |
| 2026-04-15 15:03 | 50.31744 | 0.14848 | 17950 ft | 410 kts | 152° |
| 2026-04-15 15:03 | 50.29355 | 0.17314 | 18535 ft | 412 kts | 152° |
| 2026-04-15 15:03 | 50.26953 | 0.19784 | 19043 ft | 414 kts | 152° |
| 2026-04-15 15:03 | 50.24541 | 0.22260 | 19550 ft | 416 kts | 153° |
| 2026-04-15 15:04 | 50.22905 | 0.23940 | 19898 ft | 417 kts | 153° |
| 2026-04-15 15:04 | 50.20510 | 0.26394 | 20384 ft | 418 kts | 153° |
| 2026-04-15 15:04 | 50.18091 | 0.28872 | 20824 ft | 421 kts | 153° |
| 2026-04-15 15:04 | 50.15637 | 0.31389 | 21248 ft | 424 kts | 153° |
| 2026-04-15 15:05 | 50.13173 | 0.33925 | 21707 ft | 425 kts | 153° |
| 2026-04-15 15:05 | 50.10698 | 0.36472 | 22157 ft | 427 kts | 153° |
| 2026-04-15 15:05 | 50.08213 | 0.39024 | 22606 ft | 429 kts | 154° |
| 2026-04-15 15:05 | 50.05716 | 0.41585 | 23036 ft | 431 kts | 154° |
| 2026-04-15 15:06 | 50.00691 | 0.46718 | 23780 ft | 434 kts | 153° |
| 2026-04-15 15:06 | 49.98154 | 0.49297 | 24066 ft | 437 kts | 153° |
| 2026-04-15 15:06 | 49.95601 | 0.51891 | 24273 ft | 440 kts | 153° |
| 2026-04-15 15:07 | 49.93034 | 0.54505 | 24498 ft | 442 kts | 153° |
| 2026-04-15 15:07 | 49.90457 | 0.57133 | 24678 ft | 444 kts | 153° |
| 2026-04-15 15:07 | 49.87871 | 0.59762 | 24882 ft | 445 kts | 153° |
| 2026-04-15 15:07 | 49.85330 | 0.62563 | 25124 ft | 453 kts | 147° |
| 2026-04-15 15:08 | 49.82985 | 0.65885 | 25361 ft | 459 kts | 144° |
| 2026-04-15 15:08 | 49.80661 | 0.69282 | 25633 ft | 460 kts | 144° |
| 2026-04-15 15:08 | 49.78335 | 0.72675 | 26030 ft | 459 kts | 144° |
| 2026-04-15 15:08 | 49.76014 | 0.76056 | 26450 ft | 458 kts | 144° |
| 2026-04-15 15:09 | 49.73694 | 0.79429 | 26853 ft | 458 kts | 144° |
| 2026-04-15 15:09 | 49.71373 | 0.82795 | 27217 ft | 458 kts | 144° |
| 2026-04-15 15:09 | 49.69041 | 0.86171 | 27628 ft | 458 kts | 144° |
| 2026-04-15 15:09 | 49.66715 | 0.89530 | 28066 ft | 457 kts | 144° |
| 2026-04-15 15:10 | 49.64388 | 0.92878 | 28417 ft | 459 kts | 144° |
| 2026-04-15 15:10 | 49.62050 | 0.96243 | 28793 ft | 460 kts | 144° |
| 2026-04-15 15:10 | 49.59712 | 0.99603 | 29248 ft | 460 kts | 144° |
| 2026-04-15 15:10 | 49.57374 | 1.02959 | 29713 ft | 459 kts | 144° |
| 2026-04-15 15:11 | 49.55039 | 1.06307 | 30181 ft | 459 kts | 144° |
| 2026-04-15 15:11 | 49.52737 | 1.09609 | 30584 ft | 458 kts | 144° |
| 2026-04-15 15:11 | 49.50403 | 1.12946 | 30939 ft | 458 kts | 144° |
| 2026-04-15 15:11 | 49.48066 | 1.16279 | 31107 ft | 460 kts | 144° |
| 2026-04-15 15:12 | 49.43357 | 1.22986 | 31136 ft | 462 kts | 144° |
| 2026-04-15 15:12 | 49.38645 | 1.29697 | 31138 ft | 462 kts | 144° |
| 2026-04-15 15:13 | 49.33930 | 1.36395 | 31140 ft | 462 kts | 144° |
| 2026-04-15 15:13 | 49.29206 | 1.43075 | 31124 ft | 462 kts | 144° |
| 2026-04-15 15:14 | 49.24466 | 1.49764 | 31137 ft | 464 kts | 144° |
| 2026-04-15 15:14 | 49.19718 | 1.56443 | 31143 ft | 464 kts | 144° |
| 2026-04-15 15:15 | 49.14962 | 1.63113 | 31152 ft | 464 kts | 144° |
| 2026-04-15 15:15 | 49.10209 | 1.69767 | 31151 ft | 464 kts | 144° |
| 2026-04-15 15:16 | 49.05450 | 1.76408 | 31104 ft | 464 kts | 143° |
| 2026-04-15 15:16 | 49.00667 | 1.83062 | 31157 ft | 467 kts | 143° |
| 2026-04-15 15:17 | 48.95866 | 1.89720 | 31159 ft | 466 kts | 144° |
| 2026-04-15 15:17 | 48.91068 | 1.96355 | 31179 ft | 466 kts | 144° |
| 2026-04-15 15:18 | 48.86300 | 2.02927 | 31185 ft | 466 kts | 144° |
| 2026-04-15 15:18 | 48.81496 | 2.09538 | 31188 ft | 466 kts | 144° |
| 2026-04-15 15:19 | 48.76695 | 2.16143 | 31184 ft | 466 kts | 144° |
| 2026-04-15 15:19 | 48.71907 | 2.22697 | 31169 ft | 465 kts | 144° |
| 2026-04-15 15:20 | 48.67103 | 2.29252 | 31175 ft | 465 kts | 144° |
| 2026-04-15 15:20 | 48.62300 | 2.35801 | 31161 ft | 465 kts | 144° |
| 2026-04-15 15:21 | 48.57488 | 2.42331 | 31167 ft | 465 kts | 144° |
| 2026-04-15 15:21 | 48.52666 | 2.48847 | 31169 ft | 465 kts | 144° |
| 2026-04-15 15:22 | 48.47847 | 2.55370 | 31171 ft | 466 kts | 144° |
| 2026-04-15 15:22 | 48.43018 | 2.61891 | 31154 ft | 466 kts | 144° |
| 2026-04-15 15:23 | 48.38168 | 2.68392 | 31154 ft | 467 kts | 144° |
| 2026-04-15 15:23 | 48.33305 | 2.74900 | 31165 ft | 469 kts | 144° |
| 2026-04-15 15:24 | 48.28432 | 2.81410 | 31166 ft | 469 kts | 144° |
| 2026-04-15 15:24 | 48.23437 | 2.87669 | 31170 ft | 466 kts | 147° |
| 2026-04-15 15:25 | 48.18301 | 2.93479 | 31153 ft | 465 kts | 149° |
| 2026-04-15 15:25 | 48.13129 | 2.99250 | 31140 ft | 466 kts | 148° |
| 2026-04-15 15:26 | 48.07846 | 3.04854 | 31151 ft | 462 kts | 156° |
| 2026-04-15 15:26 | 48.02024 | 3.08777 | 31162 ft | 459 kts | 162° |
| 2026-04-15 15:27 | 47.96134 | 3.12489 | 31156 ft | 460 kts | 162° |
| 2026-04-15 15:27 | 47.90243 | 3.16270 | 31155 ft | 462 kts | 157° |
| 2026-04-15 15:28 | 47.84399 | 3.20311 | 31215 ft | 463 kts | 157° |
| 2026-04-15 15:28 | 47.78501 | 3.24143 | 31221 ft | 462 kts | 160° |
| 2026-04-15 15:29 | 47.72491 | 3.27466 | 31221 ft | 461 kts | 162° |
| 2026-04-15 15:29 | 47.66498 | 3.30890 | 31293 ft | 463 kts | 159° |
| 2026-04-15 15:30 | 47.60615 | 3.34825 | 31259 ft | 465 kts | 156° |
| 2026-04-15 15:30 | 47.54719 | 3.38822 | 31195 ft | 467 kts | 158° |
| 2026-04-15 15:31 | 47.48702 | 3.42489 | 31242 ft | 467 kts | 161° |
| 2026-04-15 15:31 | 47.43947 | 3.45106 | 31172 ft | 467 kts | 163° |
| 2026-04-15 15:36 | 47.40907 | 3.47003 | 31162 ft | 468 kts | 161° |
| 2026-04-15 15:36 | 47.34889 | 3.50647 | 31170 ft | 467 kts | 162° |
| 2026-04-15 15:37 | 47.28895 | 3.54199 | 31162 ft | 468 kts | 162° |
| 2026-04-15 15:37 | 47.22865 | 3.57844 | 31168 ft | 469 kts | 161° |
| 2026-04-15 15:38 | 47.16841 | 3.61539 | 31174 ft | 470 kts | 161° |
| 2026-04-15 15:38 | 47.10805 | 3.65231 | 31170 ft | 470 kts | 161° |
| 2026-04-15 15:39 | 47.04756 | 3.68902 | 31179 ft | 471 kts | 161° |
| 2026-04-15 15:39 | 46.98803 | 3.72921 | 31178 ft | 476 kts | 151° |
| 2026-04-15 15:40 | 46.93849 | 3.79424 | 31184 ft | 486 kts | 130° |
| 2026-04-15 15:40 | 46.90654 | 3.88171 | 31181 ft | 492 kts | 113° |
| 2026-04-15 15:41 | 46.88200 | 3.97521 | 31172 ft | 493 kts | 113° |
| 2026-04-15 15:41 | 46.85711 | 4.06851 | 31179 ft | 493 kts | 113° |
| 2026-04-15 15:42 | 46.83205 | 4.16182 | 31180 ft | 493 kts | 113° |
| 2026-04-15 15:42 | 46.80749 | 4.25539 | 31181 ft | 494 kts | 108° |
| 2026-04-15 15:43 | 46.79225 | 4.35324 | 31182 ft | 495 kts | 103° |
| 2026-04-15 15:43 | 46.77817 | 4.45088 | 31183 ft | 495 kts | 103° |
| 2026-04-15 15:44 | 46.76364 | 4.54966 | 31192 ft | 494 kts | 103° |
| 2026-04-15 15:44 | 46.74909 | 4.64762 | 31194 ft | 494 kts | 103° |
| 2026-04-15 15:45 | 46.73463 | 4.74479 | 31186 ft | 493 kts | 103° |
| 2026-04-15 15:45 | 46.72003 | 4.84240 | 31182 ft | 493 kts | 103° |
| 2026-04-15 15:46 | 46.70529 | 4.93990 | 31184 ft | 492 kts | 103° |
| 2026-04-15 15:46 | 46.69052 | 5.03720 | 31197 ft | 491 kts | 103° |
| 2026-04-15 15:47 | 46.67573 | 5.13430 | 31187 ft | 491 kts | 103° |
| 2026-04-15 15:47 | 46.66093 | 5.23130 | 31184 ft | 491 kts | 103° |
| 2026-04-15 15:48 | 46.64635 | 5.32821 | 30760 ft | 489 kts | 102° |
| 2026-04-15 15:48 | 46.63908 | 5.37671 | 29547 ft | 493 kts | 102° |
| 2026-04-15 15:48 | 46.63167 | 5.42568 | 28285 ft | 496 kts | 102° |
| 2026-04-15 15:49 | 46.62421 | 5.47458 | 26775 ft | 496 kts | 102° |
| 2026-04-15 15:49 | 46.61666 | 5.52368 | 25128 ft | 497 kts | 102° |
| 2026-04-15 15:49 | 46.60897 | 5.57315 | 23844 ft | 504 kts | 103° |
| 2026-04-15 15:49 | 46.60125 | 5.62232 | 22884 ft | 493 kts | 103° |
| 2026-04-15 15:50 | 46.59361 | 5.67039 | 21802 ft | 484 kts | 102° |
| 2026-04-15 15:50 | 46.58609 | 5.71760 | 20758 ft | 475 kts | 103° |
| 2026-04-15 15:50 | 46.57567 | 5.76270 | 19749 ft | 467 kts | 114° |
| 2026-04-15 15:50 | 46.56011 | 5.80366 | 18775 ft | 461 kts | 124° |
| 2026-04-15 15:51 | 46.54006 | 5.83950 | 17740 ft | 454 kts | 135° |
| 2026-04-15 15:51 | 46.51630 | 5.86884 | 17113 ft | 439 kts | 146° |
| 2026-04-15 15:51 | 46.49197 | 5.89299 | 16955 ft | 410 kts | 146° |
| 2026-04-15 15:51 | 46.46932 | 5.91581 | 16827 ft | 383 kts | 146° |
| 2026-04-15 15:52 | 46.44818 | 5.93727 | 16698 ft | 359 kts | 146° |
| 2026-04-15 15:52 | 46.42853 | 5.95721 | 16568 ft | 341 kts | 146° |
| 2026-04-15 15:52 | 46.40936 | 5.97656 | 16263 ft | 332 kts | 146° |
| 2026-04-15 15:52 | 46.39059 | 5.99544 | 16119 ft | 328 kts | 146° |
| 2026-04-15 15:53 | 46.37130 | 6.01296 | 15993 ft | 327 kts | 157° |
| 2026-04-15 15:53 | 46.34952 | 6.02102 | 15848 ft | 323 kts | 178° |
| 2026-04-15 15:53 | 46.32739 | 6.01766 | 15577 ft | 321 kts | 197° |
| 2026-04-15 15:53 | 46.30754 | 6.00357 | 14988 ft | 316 kts | 219° |
| 2026-04-15 15:54 | 46.29177 | 5.98206 | 14485 ft | 309 kts | 227° |
| 2026-04-15 15:54 | 46.27680 | 5.96009 | 13981 ft | 305 kts | 227° |
| 2026-04-15 15:54 | 46.26197 | 5.93834 | 13450 ft | 302 kts | 227° |
| 2026-04-15 15:54 | 46.24724 | 5.91677 | 12965 ft | 300 kts | 227° |
| 2026-04-15 15:55 | 46.23260 | 5.89542 | 12467 ft | 298 kts | 227° |
| 2026-04-15 15:55 | 46.21810 | 5.87432 | 12018 ft | 295 kts | 227° |
| 2026-04-15 15:55 | 46.20855 | 5.86043 | 11713 ft | 294 kts | 226° |
| 2026-04-15 15:55 | 46.18933 | 5.83248 | 11097 ft | 292 kts | 226° |
| 2026-04-15 15:56 | 46.17986 | 5.81871 | 10796 ft | 291 kts | 226° |
| 2026-04-15 15:56 | 46.16563 | 5.79804 | 10336 ft | 289 kts | 225° |
| 2026-04-15 15:56 | 46.15150 | 5.77756 | 9862 ft | 287 kts | 226° |
| 2026-04-15 15:56 | 46.13748 | 5.75729 | 9404 ft | 284 kts | 225° |
| 2026-04-15 15:57 | 46.12386 | 5.73763 | 9237 ft | 269 kts | 225° |
| 2026-04-15 15:57 | 46.10985 | 5.72105 | 9049 ft | 256 kts | 206° |
| 2026-04-15 15:57 | 46.09286 | 5.71621 | 8832 ft | 249 kts | 175° |
| 2026-04-15 15:57 | 46.07636 | 5.72431 | 8320 ft | 258 kts | 143° |
| 2026-04-15 15:58 | 46.06342 | 5.74208 | 7790 ft | 258 kts | 135° |
| 2026-04-15 15:58 | 46.05087 | 5.75998 | 7429 ft | 250 kts | 135° |
| 2026-04-15 15:58 | 46.03895 | 5.77750 | 7179 ft | 239 kts | 127° |
| 2026-04-15 15:58 | 46.03375 | 5.79930 | 7040 ft | 233 kts | 86° |
| 2026-04-15 15:59 | 46.03910 | 5.82096 | 6684 ft | 231 kts | 53° |
| 2026-04-15 15:59 | 46.04932 | 5.83805 | 6332 ft | 226 kts | 45° |
| 2026-04-15 15:59 | 46.06063 | 5.85389 | 6037 ft | 221 kts | 43° |
| 2026-04-15 15:59 | 46.07180 | 5.86899 | 5994 ft | 221 kts | 43° |
| 2026-04-15 16:00 | 46.08334 | 5.88409 | 5590 ft | 229 kts | 42° |
| 2026-04-15 16:00 | 46.09467 | 5.89964 | 5193 ft | 227 kts | 44° |
| 2026-04-15 16:00 | 46.10587 | 5.91579 | 4861 ft | 223 kts | 44° |
| 2026-04-15 16:00 | 46.11650 | 5.93127 | 4552 ft | 217 kts | 44° |
| 2026-04-15 16:01 | 46.12709 | 5.94672 | 4266 ft | 210 kts | 44° |
| 2026-04-15 16:01 | 46.13707 | 5.96127 | 3993 ft | 203 kts | 43° |
| 2026-04-15 16:01 | 46.14683 | 5.97551 | 3764 ft | 195 kts | 44° |
| 2026-04-15 16:01 | 46.15618 | 5.98915 | 3476 ft | 186 kts | 44° |
| 2026-04-15 16:02 | 46.16495 | 6.00195 | 3231 ft | 173 kts | 45° |
| 2026-04-15 16:02 | 46.17307 | 6.01382 | 3009 ft | 160 kts | 44° |
| 2026-04-15 16:02 | 46.18063 | 6.02487 | 2804 ft | 150 kts | 44° |
| 2026-04-15 16:02 | 46.18786 | 6.03544 | 2606 ft | 146 kts | 45° |
| 2026-04-15 16:03 | 46.19487 | 6.04568 | 2400 ft | 142 kts | 45° |
| 2026-04-15 16:03 | 46.20173 | 6.05571 | 2203 ft | 140 kts | 46° |
| 2026-04-15 16:03 | 46.20850 | 6.06563 | 2002 ft | 138 kts | 46° |
| 2026-04-15 16:03 | 46.21526 | 6.07550 | 1796 ft | 138 kts | 46° |
| 2026-04-15 16:04 | 46.22196 | 6.08533 | 1619 ft | 137 kts | 45° |
| 2026-04-15 16:04 | 46.22863 | 6.09513 | 1441 ft | 136 kts | 46° |
| 2026-04-15 16:04 | 46.23440 | 6.10357 | 1396 ft | 85 kts | 45° |
| 2026-04-15 16:04 | 46.23646 | 6.10664 | 1382 ft | 12 kts | 52° |
| 2026-04-15 16:05 | 46.23607 | 6.10733 | 1383 ft | 11 kts | 184° |
| 2026-04-15 16:05 | 46.23554 | 6.10711 | 1385 ft | 0 kts | 196° |
| 2026-04-15 16:05 | 46.23546 | 6.10707 | 1385 ft | 3 kts | 196° |
| 2026-04-15 16:06 | 46.23530 | 6.10701 | 1386 ft | 1 kts | 195° |
| 2026-04-15 16:06 | 46.23524 | 6.10698 | 1387 ft | 1 kts | 195° |
| 2026-04-15 16:06 | 46.23515 | 6.10695 | 1387 ft | 3 kts | 195° |
| 2026-04-15 16:06 | 46.23473 | 6.10678 | 1390 ft | 11 kts | 195° |
| 2026-04-15 16:07 | 46.23397 | 6.10632 | 1392 ft | 12 kts | 215° |
| 2026-04-15 16:07 | 46.23337 | 6.10550 | 1399 ft | 12 kts | 226° |
| 2026-04-15 16:07 | 46.23218 | 6.10377 | 1396 ft | 12 kts | 224° |
| 2026-04-15 16:08 | 46.23172 | 6.10346 | 1394 ft | 7 kts | 164° |
| 2026-04-15 16:08 | 46.23135 | 6.10393 | 1401 ft | 6 kts | 132° |
| 2026-04-15 16:08 | 46.23127 | 6.10436 | 1393 ft | 4 kts | 86° |
| 2026-04-15 16:08 | 46.23127 | 6.10467 | 1395 ft | 2 kts | 92° |
| 2026-04-15 16:09 | 46.23127 | 6.10487 | 1405 ft | 2 kts | 91° |
| 2026-04-15 16:09 | 46.23127 | 6.10502 | 1393 ft | 1 kts | 90° |
| 2026-04-15 16:09 | 46.23126 | 6.10515 | 1402 ft | 2 kts | 91° |
| 2026-04-15 16:09 | 46.23126 | 6.10516 | 1393 ft | 0 kts | 90° |